Time;durP1;ratioP1;P1;durP2;ratioP2;P2;SDS_P1;SDS_P2;PMS_P1;PMS_P2;Temp;Humidity;BMP_temperature;BMP_pressure;BME280_temperature;BME280_humidity;BME280_pressure;Samples;Min_cycle;Max_cycle;Signal;HPM_P1;HPM_P2
2023/10/11 00:02:55;;;;;;;;;;;;;;;;;;6310042;22;19919;-94
2023/10/11 00:05:21;;;;;;;;;;;;;;;;;;6282065;22;19911;-95
2023/10/11 00:07:48;;;;;;;;;;;;;;;;;;6282201;22;19903;-94
2023/10/11 00:10:22;;;;;;;;;;;;;;;;;;6282134;22;20391;-95
2023/10/11 00:12:50;;;;;;;;;;;;;;;;;;6282166;22;19926;-95
2023/10/11 00:15:16;;;;;;;;;;;;;;;;;;6278547;22;19944;-93
2023/10/11 00:17:46;;;;;;;;;;;;;;;;;;6284191;22;20014;-93
2023/10/11 00:20:19;;;;;;;;;;;;;;;;;;6282070;22;19968;-94
2023/10/11 00:22:45;;;;;;;;;;;;;;;;;;6288260;22;19903;-95
2023/10/11 00:25:23;;;;;;;;;;;;;;;;;;6301887;22;19985;-94
2023/10/11 00:27:49;;;;;;;;;;;;;;;;;;6309370;22;19950;-96
2023/10/11 00:30:17;;;;;;;;;;;;;;;;;;6302523;22;19910;-96
2023/10/11 00:32:45;;;;;;;;;;;;;;;;;;6290471;22;19910;-96
2023/10/11 00:35:18;;;;;;;;;;;;;;;;;;6282540;22;19903;-96
2023/10/11 00:37:44;;;;;;;;;;;;;;;;;;6291142;22;19902;-93
2023/10/11 00:40:13;;;;;;;;;;;;;;;;;;6291280;22;20321;-95
2023/10/11 00:42:39;;;;;;;;;;;;;;;;;;6282275;22;20321;-93
2023/10/11 00:45:08;;;;;;;;;;;;;;;;;;6283332;22;19960;-93
2023/10/11 00:47:40;;;;;;;;;;;;;;;;;;6286287;22;19909;-95
2023/10/11 00:50:07;;;;;;;;;;;;;;;;;;6280103;22;20226;-95
2023/10/11 00:52:34;;;;;;;;;;;;;;;;;;6283954;22;19906;-94
2023/10/11 00:55:00;;;;;;;;;;;;;;;;;;6283734;22;19981;-95
2023/10/11 00:57:27;;;;;;;;;;;;;;;;;;6284485;22;20300;-93
2023/10/11 00:59:53;;;;;;;;;;;;;;;;;;6283662;22;19983;-94
2023/10/11 01:02:20;;;;;;;;;;;;;;;;;;6283459;22;19906;-94
2023/10/11 01:04:46;;;;;;;;;;;;;;;;;;6283671;22;19934;-94
2023/10/11 01:07:12;;;;;;;;;;;;;;;;;;6285236;22;19911;-95
2023/10/11 01:09:40;;;;;;;;;;;;;;;;;;6284594;22;19977;-95
2023/10/11 01:12:06;;;;;;;;;;;;;;;;;;6283377;22;19903;-94
2023/10/11 01:14:45;;;;;;;;;;;;;;;;;;6283404;22;19925;-94
2023/10/11 01:17:11;;;;;;;;;;;;;;;;;;6284322;22;19911;-94
2023/10/11 01:19:38;;;;;;;;;;;;;;;;;;6282588;22;19903;-94
2023/10/11 01:22:10;;;;;;;;;;;;;;;;;;6284594;22;19903;-95
2023/10/11 01:24:38;;;;;;;;;;;;;;;;;;6283749;22;19911;-94
2023/10/11 01:27:05;;;;;;;;;;;;;;;;;;6283034;22;19903;-96
2023/10/11 01:29:31;;;;;;;;;;;;;;;;;;6284545;22;19887;-94
2023/10/11 01:31:57;;;;;;;;;;;;;;;;;;6284939;22;19949;-95
2023/10/11 01:34:30;;;;;;;;;;;;;;;;;;6285656;22;19922;-95
2023/10/11 01:36:57;;;;;;;;;;;;;;;;;;6285553;22;19903;-94
2023/10/11 01:39:23;;;;;;;;;;;;;;;;;;6286783;22;19907;-93
2023/10/11 01:41:49;;;;;;;;;;;;;;;;;;6285445;22;19910;-94
2023/10/11 01:44:15;;;;;;;;;;;;;;;;;;6290859;22;20308;-94
2023/10/11 01:46:41;;;;;;;;;;;;;;;;;;6284312;22;19910;-93
2023/10/11 01:49:10;;;;;;;;;;;;;;;;;;6292604;22;19903;-94
2023/10/11 01:51:38;;;;;;;;;;;;;;;;;;6288604;22;19949;-94
2023/10/11 01:54:06;;;;;;;;;;;;;;;;;;6283402;22;19903;-94
2023/10/11 01:56:32;;;;;;;;;;;;;;;;;;6282560;22;19903;-94
2023/10/11 01:59:00;;;;;;;;;;;;;;;;;;6285258;22;20377;-94
2023/10/11 02:01:26;;;;;;;;;;;;;;;;;;6284398;22;19903;-94
2023/10/11 02:03:58;;;;;;;;;;;;;;;;;;6286720;22;19926;-94
2023/10/11 02:06:31;;;;;;;;;;;;;;;;;;6285359;22;19953;-94
2023/10/11 02:08:57;;;;;;;;;;;;;;;;;;6287844;22;19903;-93
2023/10/11 02:11:42;;;;;;;;;;;;;;;;;;6283357;22;19926;-93
2023/10/11 02:14:08;;;;;;;;;;;;;;;;;;6283760;22;19948;-93
2023/10/11 02:16:36;;;;;;;;;;;;;;;;;;6284690;22;19927;-94
2023/10/11 02:19:15;;;;;;;;;;;;;;;;;;6281070;22;20337;-96
2023/10/11 02:21:44;;;;;;;;;;;;;;;;;;6283269;22;19906;-93
2023/10/11 02:24:10;;;;;;;;;;;;;;;;;;6290171;22;19918;-95
2023/10/11 02:26:35;;;;;;;;;;;;;;;;;;6284144;22;19903;-94
2023/10/11 02:29:06;;;;;;;;;;;;;;;;;;6284458;22;19926;-93
2023/10/11 02:31:36;;;;;;;;;;;;;;;;;;6298356;22;19891;-93
2023/10/11 02:34:20;;;;;;;;;;;;;;;;;;6289351;22;19903;-94
2023/10/11 02:36:55;;;;;;;;;;;;;;;;;;6284507;22;19902;-92
2023/10/11 02:39:21;;;;;;;;;;;;;;;;;;6282956;22;19978;-94
2023/10/11 02:41:49;;;;;;;;;;;;;;;;;;6282576;22;19903;-93
2023/10/11 02:44:22;;;;;;;;;;;;;;;;;;6283421;22;19911;-94
2023/10/11 02:46:49;;;;;;;;;;;;;;;;;;6287696;22;19903;-93
2023/10/11 02:49:21;;;;;;;;;;;;;;;;;;6286136;22;19911;-95
2023/10/11 02:51:55;;;;;;;;;;;;;;;;;;6287989;22;19903;-92
2023/10/11 02:54:21;;;;;;;;;;;;;;;;;;6287626;22;19964;-93
2023/10/11 02:56:47;;;;;;;;;;;;;;;;;;6287490;22;19903;-93
2023/10/11 02:59:19;;;;;;;;;;;;;;;;;;6286017;22;20324;-94
2023/10/11 03:01:46;;;;;;;;;;;;;;;;;;6283441;22;19903;-94
2023/10/11 03:04:15;;;;;;;;;;;;;;;;;;6283684;22;19911;-94
2023/10/11 03:06:49;;;;;;;;;;;;;;;;;;6284916;22;20258;-92
2023/10/11 03:09:18;;;;;;;;;;;;;;;;;;6284711;22;19907;-93
2023/10/11 03:11:47;;;;;;;;;;;;;;;;;;6284772;22;19903;-94
2023/10/11 03:14:13;;;;;;;;;;;;;;;;;;6285484;22;19903;-94
2023/10/11 03:16:42;;;;;;;;;;;;;;;;;;6289907;22;19907;-95
2023/10/11 03:21:44;;;;;;;;;;;;;;;;;;6315767;22;19963;-94
2023/10/11 03:24:14;;;;;;;;;;;;;;;;;;6287759;22;19915;-94
2023/10/11 03:26:51;;;;;;;;;;;;;;;;;;6289674;22;20378;-95
2023/10/11 03:29:30;;;;;;;;;;;;;;;;;;6289824;22;19956;-96
2023/10/11 03:31:59;;;;;;;;;;;;;;;;;;6278329;22;19930;-94
2023/10/11 03:37:27;;;;;;;;;;;;;;;;;;6322111;22;19926;-96
2023/10/11 03:44:59;;;;;;;;;;;;;;;;;;6289493;22;19919;-95
2023/10/11 03:49:57;;;;;;;;;;;;;;;;;;6311287;22;20331;-93
2023/10/11 03:52:32;;;;;;;;;;;;;;;;;;6281842;22;19982;-94
2023/10/11 03:55:16;;;;;;;;;;;;;;;;;;6281872;22;19980;-94
2023/10/11 03:57:50;;;;;;;;;;;;;;;;;;6282583;22;19899;-94
2023/10/11 04:00:28;;;;;;;;;;;;;;;;;;6281217;22;19941;-93
2023/10/11 04:02:57;;;;;;;;;;;;;;;;;;6305246;22;20229;-94
2023/10/11 04:05:29;;;;;;;;;;;;;;;;;;6284253;22;19962;-95
2023/10/11 04:07:58;;;;;;;;;;;;;;;;;;6283425;22;19928;-94
2023/10/11 04:10:38;;;;;;;;;;;;;;;;;;6282924;22;19938;-94
2023/10/11 04:13:09;;;;;;;;;;;;;;;;;;6285898;22;19903;-94
2023/10/11 04:15:40;;;;;;;;;;;;;;;;;;6288092;22;19903;-94
2023/10/11 04:23:36;;;;;;;;;;;;;;;;;;6313512;22;19994;-93
2023/10/11 04:26:07;;;;;;;;;;;;;;;;;;6293210;22;19903;-94
2023/10/11 04:28:52;;;;;;;;;;;;;;;;;;6296621;22;19903;-95
2023/10/11 04:31:40;;;;;;;;;;;;;;;;;;6285593;22;20335;-93
2023/10/11 04:34:14;;;;;;;;;;;;;;;;;;6284415;22;19903;-95
2023/10/11 04:36:42;;;;;;;;;;;;;;;;;;6283647;22;19910;-93
2023/10/11 04:39:14;;;;;;;;;;;;;;;;;;6284375;22;19903;-96
2023/10/11 04:41:49;;;;;;;;;;;;;;;;;;6284165;22;19910;-94
2023/10/11 04:44:17;;;;;;;;;;;;;;;;;;6283754;22;19934;-94
2023/10/11 04:46:44;;;;;;;;;;;;;;;;;;6284164;22;19907;-95
2023/10/11 04:49:21;;;;;;;;;;;;;;;;;;6278488;22;20355;-95
2023/10/11 04:54:53;;;;;;;;;;;;;;;;;;6280188;22;19926;-96
2023/10/11 05:00:11;;;;;;;;;;;;;;;;;;6280000;22;19911;-96
2023/10/11 05:02:38;;;;;;;;;;;;;;;;;;6278625;22;20364;-96
2023/10/11 05:05:10;;;;;;;;;;;;;;;;;;6277624;22;19911;-96
2023/10/11 05:12:47;;;;;;;;;;;;;;;;;;6249284;23;19904;-96
2023/10/11 05:15:34;;;;;;;;;;;;;;;;;;6217228;23;19907;-96
2023/10/11 05:18:06;;;;;;;;;;;;;;;;;;6222921;23;19907;-95
2023/10/11 05:20:57;;;;;;;;;;;;;;;;;;6221106;22;20794;-95
2023/10/11 05:26:36;;;;;;;;;;;;;;;;;;6250737;23;19910;-96
2023/10/11 05:29:09;;;;;;;;;;;;;;;;;;6248942;22;19910;-96
2023/10/11 05:31:56;;;;;;;;;;;;;;;;;;6277028;22;19982;-92
2023/10/11 05:50:57;;;;;;;;;;;;;;;;;;6277147;22;19910;-94
2023/10/11 05:53:24;;;;;;;;;;;;;;;;;;6251379;22;19903;-95
2023/10/11 05:55:51;;;;;;;;;;;;;;;;;;6254999;22;19970;-96
2023/10/11 06:03:37;;;;;;;;;;;;;;;;;;6301277;22;19919;-94
2023/10/11 06:06:23;;;;;;;;;;;;;;;;;;;;;
2023/10/11 06:08:52;;;;;;;;;;;;;;;;;;6311908;22;19981;-96
2023/10/11 06:11:24;;;;;;;;;;;;;;;;;;6283434;22;19903;-95
2023/10/11 06:13:52;;;;;;;;;;;;;;;;;;6284312;22;20371;-96
2023/10/11 06:16:25;;;;;;;;;;;;;;;;;;6283971;22;19902;-96
2023/10/11 06:18:57;;;;;;;;;;;;;;;;;;6287339;22;19909;-94
2023/10/11 06:21:51;;;;;;;;;;;;;;;;;;6303389;22;19910;-96
2023/10/11 06:24:17;;;;;;;;;;;;;;;;;;6290293;22;20355;-96
2023/10/11 06:37:06;;;;;;;;;;;;;;;;;;6298273;22;19965;-94
2023/10/11 07:00:23;;;;;;;;;;;;;;;;;;6281381;22;19933;-94
2023/10/11 07:02:49;;;;;;;;;;;;;;;;;;6282491;22;19910;-96
2023/10/11 07:05:19;;;;;;;;;;;;;;;;;;6282225;22;20240;-94
2023/10/11 07:07:47;;;;;;;;;;;;;;;;;;6283111;22;19903;-94
2023/10/11 07:10:29;;;;;;;;;;;;;;;;;;6282642;22;19910;-94
2023/10/11 07:13:04;;;;;;;;;;;;;;;;;;6279643;22;19902;-94
2023/10/11 07:15:31;;;;;;;;;;;;;;;;;;6282594;22;19903;-95
2023/10/11 07:20:48;;;;;;;;;;;;;;;;;;6244220;22;19964;-95
2023/10/11 07:23:18;;;;;;;;;;;;;;;;;;6285011;22;19907;-96
2023/10/11 07:25:45;;;;;;;;;;;;;;;;;;6283240;22;19927;-95
2023/10/11 07:28:14;;;;;;;;;;;;;;;;;;6282775;22;19948;-94
2023/10/11 07:30:40;;;;;;;;;;;;;;;;;;6282810;22;19934;-95
2023/10/11 07:33:08;;;;;;;;;;;;;;;;;;6282474;22;19903;-95
2023/10/11 07:35:34;;;;;;;;;;;;;;;;;;6282130;22;19903;-95
2023/10/11 07:38:00;;;;;;;;;;;;;;;;;;6287206;22;19887;-95
2023/10/11 07:40:46;;;;;;;;;;;;;;;;;;6282288;22;19927;-94
2023/10/11 07:43:16;;;;;;;;;;;;;;;;;;6282354;22;19910;-96
2023/10/11 07:45:48;;;;;;;;;;;;;;;;;;6283964;22;19981;-92
2023/10/11 07:48:17;;;;;;;;;;;;;;;;;;6282282;22;19910;-94
2023/10/11 07:50:46;;;;;;;;;;;;;;;;;;6282151;22;19910;-95
2023/10/11 07:53:13;;;;;;;;;;;;;;;;;;6281762;22;19903;-95
2023/10/11 07:55:39;;;;;;;;;;;;;;;;;;6282639;22;19910;-94
2023/10/11 07:58:08;;;;;;;;;;;;;;;;;;6282070;22;19907;-94
2023/10/11 08:00:40;;;;;;;;;;;;;;;;;;6281713;22;19933;-95
2023/10/11 08:03:11;;;;;;;;;;;;;;;;;;6281500;22;20217;-94
2023/10/11 08:05:44;;;;;;;;;;;;;;;;;;6278191;22;19911;-95
2023/10/11 08:08:13;;;;;;;;;;;;;;;;;;6282113;22;19903;-95
2023/10/11 08:10:44;;;;;;;;;;;;;;;;;;6282251;22;19910;-95
2023/10/11 08:13:28;;;;;;;;;;;;;;;;;;6282318;22;19907;-95
2023/10/11 08:16:05;;;;;;;;;;;;;;;;;;6298029;22;19939;-95
2023/10/11 08:18:32;;;;;;;;;;;;;;;;;;6285648;22;19910;-95
2023/10/11 08:21:01;;;;;;;;;;;;;;;;;;6282366;22;19999;-93
2023/10/11 08:23:31;;;;;;;;;;;;;;;;;;6281709;22;20228;-94
2023/10/11 08:25:57;;;;;;;;;;;;;;;;;;6282095;22;19903;-93
2023/10/11 08:28:34;;;;;;;;;;;;;;;;;;6245354;23;19907;-93
2023/10/11 08:31:04;;;;;;;;;;;;;;;;;;6244968;23;19910;-93
2023/10/11 08:33:37;;;;;;;;;;;;;;;;;;6244798;23;19907;-95
2023/10/11 08:38:48;;;;;;;;;;;;;;;;;;6245118;23;20268;-94
2023/10/11 08:41:15;;;;;;;;;;;;;;;;;;6245227;23;19904;-94
2023/10/11 08:43:41;;;;;;;;;;;;;;;;;;6244494;23;19912;-95
2023/10/11 08:46:11;;;;;;;;;;;;;;;;;;6245036;23;19931;-94
2023/10/11 08:48:38;;;;;;;;;;;;;;;;;;6244646;23;19904;-96
2023/10/11 08:51:22;;;;;;;;;;;;;;;;;;6245082;23;19904;-92
2023/10/11 08:53:54;;;;;;;;;;;;;;;;;;6245177;23;19910;-94
2023/10/11 08:56:23;;;;;;;;;;;;;;;;;;6244852;23;19915;-93
2023/10/11 08:58:53;;;;;;;;;;;;;;;;;;6259272;22;19966;-93
2023/10/11 09:01:19;;;;;;;;;;;;;;;;;;6281675;22;19903;-93
2023/10/11 09:03:45;;;;;;;;;;;;;;;;;;6281406;22;19945;-93
2023/10/11 09:06:10;;;;;;;;;;;;;;;;;;6283214;22;19903;-93
2023/10/11 09:08:36;;;;;;;;;;;;;;;;;;6283208;22;20320;-94
2023/10/11 09:11:11;;;;;;;;;;;;;;;;;;6283537;22;20308;-93
2023/10/11 09:13:37;;;;;;;;;;;;;;;;;;6282293;22;19903;-93
2023/10/11 09:16:08;;;;;;;;;;;;;;;;;;6282954;22;19926;-94
2023/10/11 09:18:42;;;;;;;;;;;;;;;;;;6283334;22;19978;-93
2023/10/11 09:21:12;;;;;;;;;;;;;;;;;;6277982;22;19915;-93
2023/10/11 09:23:47;;;;;;;;;;;;;;;;;;6278130;22;20313;-93
2023/10/11 09:28:58;;;;;;;;;;;;;;;;;;6280533;22;20339;-92
2023/10/11 09:31:27;;;;;;;;;;;;;;;;;;6278167;22;20015;-94
2023/10/11 09:33:55;;;;;;;;;;;;;;;;;;6278135;22;20269;-94
2023/10/11 09:36:22;;;;;;;;;;;;;;;;;;6278609;22;19903;-94
2023/10/11 09:38:54;;;;;;;;;;;;;;;;;;6278354;22;19974;-93
2023/10/11 09:41:21;;;;;;;;;;;;;;;;;;6278943;22;19957;-94
2023/10/11 09:43:54;;;;;;;;;;;;;;;;;;6278086;22;19911;-94
2023/10/11 09:46:20;;;;;;;;;;;;;;;;;;6278693;22;20009;-94
2023/10/11 09:48:49;;;;;;;;;;;;;;;;;;6283748;22;19904;-96
2023/10/11 09:54:07;;;;;;;;;;;;;;;;;;6283222;22;19949;-91
2023/10/11 09:56:36;;;;;;;;;;;;;;;;;;6305054;22;19898;-91
2023/10/11 09:59:05;;;;;;;;;;;;;;;;;;6289996;22;19903;-93
2023/10/11 10:01:32;;;;;;;;;;;;;;;;;;6282342;22;19907;-94
2023/10/11 10:04:06;;;;;;;;;;;;;;;;;;6280300;22;19911;-93
2023/10/11 10:06:32;;;;;;;;;;;;;;;;;;6278092;22;19903;-93
2023/10/11 10:09:01;;;;;;;;;;;;;;;;;;6280264;22;20275;-92
2023/10/11 10:11:27;;;;;;;;;;;;;;;;;;6291255;22;19984;-92
2023/10/11 10:13:58;;;;;;;;;;;;;;;;;;6277907;22;20264;-93
2023/10/11 10:16:24;;;;;;;;;;;;;;;;;;6276005;22;19909;-92
2023/10/11 10:18:50;;;;;;;;;;;;;;;;;;6277460;22;20317;-91
2023/10/11 10:21:17;;;;;;;;;;;;;;;;;;6277866;22;19919;-93
2023/10/11 10:23:43;;;;;;;;;;;;;;;;;;6276495;22;19911;-92
2023/10/11 10:26:22;;;;;;;;;;;;;;;;;;6277784;22;19988;-94
2023/10/11 10:28:57;;;;;;;;;;;;;;;;;;6277428;22;19909;-91
2023/10/11 10:31:26;;;;;;;;;;;;;;;;;;6276735;22;19903;-93
2023/10/11 10:33:52;;;;;;;;;;;;;;;;;;6276305;22;19910;-93
2023/10/11 10:36:18;;;;;;;;;;;;;;;;;;6277755;22;19903;-91
2023/10/11 10:38:44;;;;;;;;;;;;;;;;;;6278225;22;19904;-94
2023/10/11 10:41:14;;;;;;;;;;;;;;;;;;6276964;22;19938;-91
2023/10/11 10:43:42;;;;;;;;;;;;;;;;;;6276907;22;19937;-92
2023/10/11 10:46:11;;;;;;;;;;;;;;;;;;6277809;22;19904;-93
2023/10/11 10:48:40;;;;;;;;;;;;;;;;;;6278707;22;19904;-93
2023/10/11 10:51:11;;;;;;;;;;;;;;;;;;6278408;22;19903;-94
2023/10/11 10:53:37;;;;;;;;;;;;;;;;;;6277446;22;19903;-94
2023/10/11 10:56:03;;;;;;;;;;;;;;;;;;6270027;22;20205;-93
2023/10/11 10:58:29;;;;;;;;;;;;;;;;;;6278007;22;19926;-94
2023/10/11 11:00:59;;;;;;;;;;;;;;;;;;6278038;22;20423;-92
2023/10/11 11:03:25;;;;;;;;;;;;;;;;;;6277480;22;19903;-93
2023/10/11 11:05:52;;;;;;;;;;;;;;;;;;6277119;22;20325;-95
2023/10/11 11:08:24;;;;;;;;;;;;;;;;;;6277992;22;19903;-94
2023/10/11 11:10:59;;;;;;;;;;;;;;;;;;6277174;22;20240;-94
2023/10/11 11:13:29;;;;;;;;;;;;;;;;;;6277373;22;19938;-94
2023/10/11 11:16:09;;;;;;;;;;;;;;;;;;6277270;22;19903;-92
2023/10/11 11:18:38;;;;;;;;;;;;;;;;;;6277592;22;19981;-94
2023/10/11 11:23:59;;;;;;;;;;;;;;;;;;6243015;22;19911;-94
2023/10/11 11:26:27;;;;;;;;;;;;;;;;;;6277161;22;19939;-95
2023/10/11 11:29:08;;;;;;;;;;;;;;;;;;6276222;22;19930;-94
2023/10/11 11:31:38;;;;;;;;;;;;;;;;;;6277243;22;19904;-95
2023/10/11 11:34:07;;;;;;;;;;;;;;;;;;6276637;22;19938;-94
2023/10/11 11:36:40;;;;;;;;;;;;;;;;;;6277008;22;19904;-94
2023/10/11 11:41:59;;;;;;;;;;;;;;;;;;6278634;22;19903;-94
2023/10/11 11:44:28;;;;;;;;;;;;;;;;;;6276683;22;19919;-94
2023/10/11 11:47:05;;;;;;;;;;;;;;;;;;6251896;22;20132;-94
2023/10/11 11:49:34;;;;;;;;;;;;;;;;;;6276489;22;19998;-94
2023/10/11 11:52:00;;;;;;;;;;;;;;;;;;6276797;22;19903;-95
2023/10/11 11:54:29;;;;;;;;;;;;;;;;;;6276789;22;19942;-94
2023/10/11 11:56:56;;;;;;;;;;;;;;;;;;6276837;22;19903;-95
2023/10/11 11:59:22;;;;;;;;;;;;;;;;;;6276738;22;20366;-94
2023/10/11 12:01:49;;;;;;;;;;;;;;;;;;6276970;22;19927;-94
2023/10/11 12:04:20;;;;;;;;;;;;;;;;;;6278839;22;19918;-94
2023/10/11 12:06:46;;;;;;;;;;;;;;;;;;6294438;22;19908;-94
2023/10/11 12:09:31;;;;;;;;;;;;;;;;;;6280196;22;19903;-95
2023/10/11 12:12:02;;;;;;;;;;;;;;;;;;6275975;22;19982;-94
2023/10/11 12:14:28;;;;;;;;;;;;;;;;;;6276389;22;19907;-96
2023/10/11 12:16:57;;;;;;;;;;;;;;;;;;6276797;22;20316;-95
2023/10/11 12:19:32;;;;;;;;;;;;;;;;;;6277245;22;19910;-94
2023/10/11 12:22:01;;;;;;;;;;;;;;;;;;6259645;22;19990;-94
2023/10/11 12:24:30;;;;;;;;;;;;;;;;;;6276496;22;19911;-95
2023/10/11 12:27:03;;;;;;;;;;;;;;;;;;6276672;22;19903;-95
2023/10/11 12:29:29;;;;;;;;;;;;;;;;;;6276584;22;19949;-95
2023/10/11 12:31:55;;;;;;;;;;;;;;;;;;6276788;22;20228;-95
2023/10/11 12:34:27;;;;;;;;;;;;;;;;;;6277896;22;19981;-94
2023/10/11 12:36:53;;;;;;;;;;;;;;;;;;6278414;22;19903;-95
2023/10/11 12:39:24;;;;;;;;;;;;;;;;;;6277521;22;19910;-94
2023/10/11 12:41:50;;;;;;;;;;;;;;;;;;6278791;22;19907;-94
2023/10/11 12:44:16;;;;;;;;;;;;;;;;;;6270877;22;19911;-95
2023/10/11 12:46:45;;;;;;;;;;;;;;;;;;6278708;22;19903;-95
2023/10/11 12:49:24;;;;;;;;;;;;;;;;;;6278570;22;19965;-94
2023/10/11 12:51:53;;;;;;;;;;;;;;;;;;6279122;22;19903;-93
2023/10/11 12:54:19;;;;;;;;;;;;;;;;;;6282831;22;19903;-94
2023/10/11 12:56:45;;;;;;;;;;;;;;;;;;6284434;22;19930;-92
2023/10/11 13:02:08;;;;;;;;;;;;;;;;;;6291936;22;19914;-90
2023/10/11 13:04:41;;;;;;;;;;;;;;;;;;6311242;22;19905;-92
2023/10/11 13:07:26;;;;;;;;;;;;;;;;;;6278439;22;19903;-93
2023/10/11 13:12:37;;;;;;;;;;;;;;;;;;6311982;22;19946;-95
2023/10/11 13:15:16;;;;;;;;;;;;;;;;;;6279204;22;20231;-93
2023/10/11 13:17:42;;;;;;;;;;;;;;;;;;6283891;22;19950;-93
2023/10/11 13:20:31;;;;;;;;;;;;;;;;;;6285898;22;19903;-96
2023/10/11 13:23:00;;;;;;;;;;;;;;;;;;6311125;22;19903;-94
2023/10/11 13:25:27;;;;;;;;;;;;;;;;;;6281576;22;19942;-95
2023/10/11 13:28:02;;;;;;;;;;;;;;;;;;6282846;22;19903;-93
2023/10/11 13:30:36;;;;;;;;;;;;;;;;;;6283900;22;19914;-95
2023/10/11 13:33:09;;;;;;;;;;;;;;;;;;6280648;22;19929;-94
2023/10/11 13:35:35;;;;;;;;;;;;;;;;;;6284217;22;19906;-93
2023/10/11 13:38:04;;;;;;;;;;;;;;;;;;6284348;22;19903;-93
2023/10/11 13:40:32;;;;;;;;;;;;;;;;;;6317065;22;19903;-95
2023/10/11 13:43:01;;;;;;;;;;;;;;;;;;6284049;22;19903;-94
2023/10/11 13:45:30;;;;;;;;;;;;;;;;;;6284383;22;19911;-91
2023/10/11 13:47:57;;;;;;;;;;;;;;;;;;6283800;22;19907;-92
2023/10/11 13:50:35;;;;;;;;;;;;;;;;;;6285437;22;19903;-93
2023/10/11 13:53:01;;;;;;;;;;;;;;;;;;6310058;22;19910;-93
2023/10/11 13:55:27;;;;;;;;;;;;;;;;;;6284295;22;19903;-94
2023/10/11 13:57:55;;;;;;;;;;;;;;;;;;6283107;22;19934;-93
2023/10/11 14:05:43;;;;;;;;;;;;;;;;;;6311756;22;19954;-95
2023/10/11 14:08:24;;;;;;;;;;;;;;;;;;6284174;22;19903;-95
2023/10/11 14:10:50;;;;;;;;;;;;;;;;;;6283984;22;20316;-93
2023/10/11 14:13:21;;;;;;;;;;;;;;;;;;6283580;22;19910;-95
2023/10/11 14:15:47;;;;;;;;;;;;;;;;;;6283334;22;19903;-93
2023/10/11 14:18:14;;;;;;;;;;;;;;;;;;6283682;22;19903;-94
2023/10/11 14:20:45;;;;;;;;;;;;;;;;;;6282967;22;19910;-94
2023/10/11 14:23:15;;;;;;;;;;;;;;;;;;6283252;22;19903;-93
2023/10/11 14:25:41;;;;;;;;;;;;;;;;;;6283193;22;19911;-94
2023/10/11 14:28:07;;;;;;;;;;;;;;;;;;6282779;22;19903;-95
2023/10/11 14:30:33;;;;;;;;;;;;;;;;;;6282904;22;19903;-95
2023/10/11 14:32:59;;;;;;;;;;;;;;;;;;6282943;22;19934;-94
2023/10/11 14:35:26;;;;;;;;;;;;;;;;;;6282972;22;20053;-94
2023/10/11 14:37:52;;;;;;;;;;;;;;;;;;6282948;22;19906;-94
2023/10/11 14:40:21;;;;;;;;;;;;;;;;;;6283011;22;20235;-96
2023/10/11 14:42:46;;;;;;;;;;;;;;;;;;6283773;22;19903;-93
2023/10/11 14:45:12;;;;;;;;;;;;;;;;;;6284112;22;19973;-93
2023/10/11 14:47:38;;;;;;;;;;;;;;;;;;6287201;22;19910;-96
2023/10/11 14:58:04;;;;;;;;;;;;;;;;;;6302220;22;19922;-95
2023/10/11 15:00:33;;;;;;;;;;;;;;;;;;6283469;22;19922;-94
2023/10/11 15:02:59;;;;;;;;;;;;;;;;;;6287104;22;19907;-91
2023/10/11 15:05:24;;;;;;;;;;;;;;;;;;6282261;22;19933;-95
2023/10/11 15:07:54;;;;;;;;;;;;;;;;;;6284883;22;19906;-96
2023/10/11 15:10:23;;;;;;;;;;;;;;;;;;6282704;22;19910;-95
2023/10/11 15:12:49;;;;;;;;;;;;;;;;;;6282297;22;19958;-94
2023/10/11 15:15:18;;;;;;;;;;;;;;;;;;6282667;22;20355;-95
2023/10/11 15:17:44;;;;;;;;;;;;;;;;;;6282454;22;19903;-95
2023/10/11 15:20:10;;;;;;;;;;;;;;;;;;6282501;22;19907;-95
2023/10/11 15:22:37;;;;;;;;;;;;;;;;;;6282688;22;20320;-95
2023/10/11 15:25:05;;;;;;;;;;;;;;;;;;6282755;22;19911;-95
2023/10/11 15:27:31;;;;;;;;;;;;;;;;;;6282443;22;19913;-95
2023/10/11 15:29:57;;;;;;;;;;;;;;;;;;6284335;22;19934;-95
2023/10/11 15:32:23;;;;;;;;;;;;;;;;;;6282200;22;19903;-96
2023/10/11 15:34:50;;;;;;;;;;;;;;;;;;6282168;22;19929;-95
2023/10/11 15:37:16;;;;;;;;;;;;;;;;;;6282258;22;19903;-95
2023/10/11 15:39:42;;;;;;;;;;;;;;;;;;6283575;22;19956;-95
2023/10/11 15:42:08;;;;;;;;;;;;;;;;;;6284353;22;19903;-95
2023/10/11 15:44:34;;;;;;;;;;;;;;;;;;6284088;22;19917;-95
2023/10/11 15:47:03;;;;;;;;;;;;;;;;;;6283864;22;19903;-95
2023/10/11 15:49:32;;;;;;;;;;;;;;;;;;6282911;22;19903;-96
2023/10/11 15:52:00;;;;;;;;;;;;;;;;;;6293610;22;19911;-95
2023/10/11 15:54:26;;;;;;;;;;;;;;;;;;6286095;22;19910;-96
2023/10/11 15:56:55;;;;;;;;;;;;;;;;;;6281539;22;19919;-93
2023/10/11 15:59:21;;;;;;;;;;;;;;;;;;6292750;22;19907;-92
2023/10/11 16:01:50;;;;;;;;;;;;;;;;;;6279032;22;19904;-92
2023/10/11 16:04:16;;;;;;;;;;;;;;;;;;6276813;22;19907;-93
2023/10/11 16:07:16;;;;;;;;;;;;;;;;;;6281662;22;19913;-94
2023/10/11 16:09:35;;;;;;;;;;;;;;;;;;6280514;22;19888;-94
2023/10/11 16:12:02;;;;;;;;;;;;;;;;;;6304783;22;19903;-93
2023/10/11 16:14:31;;;;;;;;;;;;;;;;;;6293379;22;20347;-93
2023/10/11 16:16:57;;;;;;;;;;;;;;;;;;6287428;22;19903;-94
2023/10/11 16:19:24;;;;;;;;;;;;;;;;;;6280768;22;20313;-96
2023/10/11 16:21:50;;;;;;;;;;;;;;;;;;6279972;22;19903;-92
2023/10/11 16:24:15;;;;;;;;;;;;;;;;;;6279143;22;19915;-94
2023/10/11 16:26:41;;;;;;;;;;;;;;;;;;6280784;22;20312;-93
2023/10/11 16:29:07;;;;;;;;;;;;;;;;;;6283688;22;20312;-93
2023/10/11 16:31:41;;;;;;;;;;;;;;;;;;6281292;22;19978;-94
2023/10/11 16:34:09;;;;;;;;;;;;;;;;;;6285329;22;19910;-93
2023/10/11 16:39:21;;;;;;;;;;;;;;;;;;6292023;22;20248;-94
2023/10/11 16:41:51;;;;;;;;;;;;;;;;;;6290701;22;19903;-93
2023/10/11 16:44:16;;;;;;;;;;;;;;;;;;6285511;22;19914;-93
2023/10/11 16:46:46;;;;;;;;;;;;;;;;;;6290331;22;19891;-95
2023/10/11 16:49:12;;;;;;;;;;;;;;;;;;6283001;22;20338;-94
2023/10/11 16:51:43;;;;;;;;;;;;;;;;;;6280854;22;19903;-95
2023/10/11 16:54:09;;;;;;;;;;;;;;;;;;6282737;22;19904;-94
2023/10/11 16:56:35;;;;;;;;;;;;;;;;;;6283960;22;19938;-94
2023/10/11 16:59:04;;;;;;;;;;;;;;;;;;6281512;22;19911;-94
2023/10/11 17:01:36;;;;;;;;;;;;;;;;;;6280964;22;19907;-93
2023/10/11 17:04:15;;;;;;;;;;;;;;;;;;6282218;22;19914;-94
2023/10/11 17:06:42;;;;;;;;;;;;;;;;;;6281864;22;19911;-92
2023/10/11 17:09:08;;;;;;;;;;;;;;;;;;6280049;22;19990;-92
2023/10/11 17:11:34;;;;;;;;;;;;;;;;;;6281000;22;20271;-92
2023/10/11 17:14:00;;;;;;;;;;;;;;;;;;6278960;22;19910;-92
2023/10/11 17:16:26;;;;;;;;;;;;;;;;;;6280282;22;19911;-92
2023/10/11 17:18:52;;;;;;;;;;;;;;;;;;6279328;22;19903;-92
2023/10/11 17:21:19;;;;;;;;;;;;;;;;;;6282240;22;20275;-92
2023/10/11 17:23:44;;;;;;;;;;;;;;;;;;6278411;22;19926;-91
2023/10/11 17:26:14;;;;;;;;;;;;;;;;;;6279734;22;20237;-92
2023/10/11 17:28:39;;;;;;;;;;;;;;;;;;6278775;22;19904;-93
2023/10/11 17:31:10;;;;;;;;;;;;;;;;;;6278773;22;20285;-94
2023/10/11 17:33:45;;;;;;;;;;;;;;;;;;6282278;22;19887;-93
2023/10/11 17:36:12;;;;;;;;;;;;;;;;;;6283878;22;20321;-93
2023/10/11 17:38:38;;;;;;;;;;;;;;;;;;6281083;22;19903;-93
2023/10/11 17:41:13;;;;;;;;;;;;;;;;;;6279732;22;19904;-94
2023/10/11 17:43:42;;;;;;;;;;;;;;;;;;6277534;22;19904;-94
2023/10/11 17:46:08;;;;;;;;;;;;;;;;;;6270868;22;19922;-93
2023/10/11 17:48:34;;;;;;;;;;;;;;;;;;6280113;22;19939;-95
2023/10/11 17:51:00;;;;;;;;;;;;;;;;;;6279951;22;20037;-94
2023/10/11 17:53:26;;;;;;;;;;;;;;;;;;6291357;22;19892;-94
2023/10/11 17:55:52;;;;;;;;;;;;;;;;;;6280639;22;19903;-94
2023/10/11 17:58:18;;;;;;;;;;;;;;;;;;6281876;22;19919;-94
2023/10/11 18:00:47;;;;;;;;;;;;;;;;;;6285302;22;19899;-93
2023/10/11 18:03:17;;;;;;;;;;;;;;;;;;6314617;22;19919;-94
2023/10/11 18:05:44;;;;;;;;;;;;;;;;;;6285651;22;19911;-94
2023/10/11 18:08:10;;;;;;;;;;;;;;;;;;6285832;22;19903;-94
2023/10/11 18:10:37;;;;;;;;;;;;;;;;;;6284335;22;19978;-93
2023/10/11 18:13:07;;;;;;;;;;;;;;;;;;6292351;22;19910;-93
2023/10/11 18:18:17;;;;;;;;;;;;;;;;;;6315526;22;19925;-91
2023/10/11 18:20:46;;;;;;;;;;;;;;;;;;6283961;22;19902;-93
2023/10/11 18:23:12;;;;;;;;;;;;;;;;;;6289182;22;19903;-92
2023/10/11 18:25:39;;;;;;;;;;;;;;;;;;6289147;22;19911;-94
2023/10/11 18:28:08;;;;;;;;;;;;;;;;;;6289352;22;19911;-91
2023/10/11 18:33:20;;;;;;;;;;;;;;;;;;6314542;22;19910;-93
2023/10/11 18:35:46;;;;;;;;;;;;;;;;;;6287892;22;20240;-93
2023/10/11 18:38:13;;;;;;;;;;;;;;;;;;6288190;22;19887;-93
2023/10/11 18:40:40;;;;;;;;;;;;;;;;;;6293116;22;19914;-91
2023/10/11 18:43:06;;;;;;;;;;;;;;;;;;6313491;22;19903;-93
2023/10/11 18:45:33;;;;;;;;;;;;;;;;;;6284421;22;20377;-93
2023/10/11 18:47:59;;;;;;;;;;;;;;;;;;6284356;22;19903;-92
2023/10/11 18:50:25;;;;;;;;;;;;;;;;;;6285228;22;19907;-92
2023/10/11 18:52:52;;;;;;;;;;;;;;;;;;6286213;22;19947;-93
2023/10/11 18:55:22;;;;;;;;;;;;;;;;;;6311721;22;19978;-95
2023/10/11 18:57:51;;;;;;;;;;;;;;;;;;6288956;22;19918;-93
2023/10/11 19:00:22;;;;;;;;;;;;;;;;;;6287532;22;19910;-93
2023/10/11 19:02:49;;;;;;;;;;;;;;;;;;6284594;22;19903;-93
2023/10/11 19:05:21;;;;;;;;;;;;;;;;;;6284529;22;19919;-93
2023/10/11 19:07:57;;;;;;;;;;;;;;;;;;6283698;22;19961;-93
2023/10/11 19:10:25;;;;;;;;;;;;;;;;;;6283986;22;19973;-93
2023/10/11 19:12:56;;;;;;;;;;;;;;;;;;6281784;22;19903;-93